sensor_id;sensor_type;location;lat;lon;timestamp;pressure;altitude;pressure_sealevel;temperature;humidity
33697;BME280;20031;43.416;23.232;2022-08-01T00:00:00;99731.19;;;21.63;62.24
33697;BME280;20031;43.416;23.232;2022-08-01T00:02:28;99732.09;;;21.57;61.57
33697;BME280;20031;43.416;23.232;2022-08-01T00:04:54;99724.38;;;21.55;61.35
33697;BME280;20031;43.416;23.232;2022-08-01T00:07:20;99723.03;;;21.53;60.37
33697;BME280;20031;43.416;23.232;2022-08-01T00:09:45;99720.63;;;21.52;59.91
33697;BME280;20031;43.416;23.232;2022-08-01T00:12:11;99718.41;;;21.49;59.53
33697;BME280;20031;43.416;23.232;2022-08-01T00:14:36;99725.94;;;21.52;59.18
33697;BME280;20031;43.416;23.232;2022-08-01T00:17:02;99717.16;;;21.51;59.18
33697;BME280;20031;43.416;23.232;2022-08-01T00:19:27;99710.72;;;21.47;59.11
33697;BME280;20031;43.416;23.232;2022-08-01T00:21:53;99715.19;;;21.47;59.01
33697;BME280;20031;43.416;23.232;2022-08-01T00:24:18;99706.78;;;21.38;59.22
33697;BME280;20031;43.416;23.232;2022-08-01T00:26:44;99705.56;;;21.29;59.43
33697;BME280;20031;43.416;23.232;2022-08-01T00:29:09;99705.44;;;21.24;59.54
33697;BME280;20031;43.416;23.232;2022-08-01T00:31:35;99692.25;;;21.13;60.22
33697;BME280;20031;43.416;23.232;2022-08-01T00:34:00;99706.09;;;21.03;60.22
33697;BME280;20031;43.416;23.232;2022-08-01T00:36:26;99702.78;;;20.97;60.25
33697;BME280;20031;43.416;23.232;2022-08-01T00:38:51;99695.28;;;20.94;59.83
33697;BME280;20031;43.416;23.232;2022-08-01T00:41:17;99700.47;;;20.89;60.51
33697;BME280;20031;43.416;23.232;2022-08-01T00:43:43;99684.59;;;20.77;60.52
33697;BME280;20031;43.416;23.232;2022-08-01T00:46:08;99690.50;;;20.79;60.27
33697;BME280;20031;43.416;23.232;2022-08-01T00:48:34;99681.63;;;20.74;60.59
33697;BME280;20031;43.416;23.232;2022-08-01T00:50:59;99685.53;;;20.71;60.82
33697;BME280;20031;43.416;23.232;2022-08-01T00:53:25;99685.50;;;20.60;60.68
33697;BME280;20031;43.416;23.232;2022-08-01T00:55:50;99687.47;;;20.53;61.20
33697;BME280;20031;43.416;23.232;2022-08-01T00:58:16;99682.50;;;20.45;61.85
33697;BME280;20031;43.416;23.232;2022-08-01T01:00:42;99683.34;;;20.34;61.99
33697;BME280;20031;43.416;23.232;2022-08-01T01:03:07;99674.34;;;20.24;62.42
33697;BME280;20031;43.416;23.232;2022-08-01T01:05:48;99671.22;;;20.15;62.57
33697;BME280;20031;43.416;23.232;2022-08-01T01:08:21;99676.19;;;20.12;62.34
33697;BME280;20031;43.416;23.232;2022-08-01T01:10:55;99676.41;;;20.10;62.59
33697;BME280;20031;43.416;23.232;2022-08-01T01:16:05;99670.97;;;20.05;62.32
33697;BME280;20031;43.416;23.232;2022-08-01T01:18:42;99664.66;;;20.06;62.66
33697;BME280;20031;43.416;23.232;2022-08-01T01:27:04;99670.09;;;20.11;61.47
33697;BME280;20031;43.416;23.232;2022-08-01T01:29:35;99667.56;;;20.16;61.38
33697;BME280;20031;43.416;23.232;2022-08-01T01:32:10;99661.34;;;20.22;60.97
33697;BME280;20031;43.416;23.232;2022-08-01T01:34:40;99667.34;;;20.29;60.34
33697;BME280;20031;43.416;23.232;2022-08-01T01:37:11;99665.59;;;20.35;60.96
33697;BME280;20031;43.416;23.232;2022-08-01T01:39:38;99664.34;;;20.37;60.43
33697;BME280;20031;43.416;23.232;2022-08-01T01:42:06;99661.47;;;20.39;60.75
33697;BME280;20031;43.416;23.232;2022-08-01T01:44:32;99659.28;;;20.36;60.45
33697;BME280;20031;43.416;23.232;2022-08-01T01:46:59;99651.13;;;20.37;60.20
33697;BME280;20031;43.416;23.232;2022-08-01T01:49:26;99655.34;;;20.38;60.35
33697;BME280;20031;43.416;23.232;2022-08-01T01:51:54;99663.19;;;20.33;60.35
33697;BME280;20031;43.416;23.232;2022-08-01T01:54:22;99664.59;;;20.24;60.80
33697;BME280;20031;43.416;23.232;2022-08-01T01:56:49;99671.22;;;20.15;61.57
33697;BME280;20031;43.416;23.232;2022-08-01T01:59:27;99679.25;;;19.98;61.94
33697;BME280;20031;43.416;23.232;2022-08-01T02:01:56;99667.44;;;19.71;63.58
33697;BME280;20031;43.416;23.232;2022-08-01T02:04:24;99673.00;;;19.51;64.86
33697;BME280;20031;43.416;23.232;2022-08-01T02:06:51;99660.81;;;19.39;65.80
33697;BME280;20031;43.416;23.232;2022-08-01T02:09:19;99647.59;;;19.39;65.69
33697;BME280;20031;43.416;23.232;2022-08-01T02:11:47;99653.28;;;19.36;66.02
33697;BME280;20031;43.416;23.232;2022-08-01T02:14:14;99645.81;;;19.33;66.03
33697;BME280;20031;43.416;23.232;2022-08-01T02:16:43;99661.22;;;19.36;66.19
33697;BME280;20031;43.416;23.232;2022-08-01T02:19:09;99655.28;;;19.41;66.89
33697;BME280;20031;43.416;23.232;2022-08-01T02:21:51;99654.16;;;19.48;66.47
33697;BME280;20031;43.416;23.232;2022-08-01T02:24:30;99652.69;;;19.52;66.46
33697;BME280;20031;43.416;23.232;2022-08-01T02:27:00;99662.44;;;19.51;65.70
33697;BME280;20031;43.416;23.232;2022-08-01T02:32:33;99659.56;;;19.53;65.41
33697;BME280;20031;43.416;23.232;2022-08-01T02:35:02;99660.97;;;19.55;64.92
33697;BME280;20031;43.416;23.232;2022-08-01T02:37:31;99658.44;;;19.49;64.73
33697;BME280;20031;43.416;23.232;2022-08-01T02:39:59;99645.53;;;19.41;64.71
33697;BME280;20031;43.416;23.232;2022-08-01T02:42:26;99650.81;;;19.41;65.33
33697;BME280;20031;43.416;23.232;2022-08-01T02:44:53;99642.09;;;19.41;65.47
33697;BME280;20031;43.416;23.232;2022-08-01T02:47:20;99644.16;;;19.50;65.58
33697;BME280;20031;43.416;23.232;2022-08-01T02:49:48;99641.22;;;19.58;64.80
33697;BME280;20031;43.416;23.232;2022-08-01T02:52:17;99649.84;;;19.65;64.61
33697;BME280;20031;43.416;23.232;2022-08-01T02:54:45;99649.16;;;19.69;64.83
33697;BME280;20031;43.416;23.232;2022-08-01T02:57:13;99656.06;;;19.70;64.36
33697;BME280;20031;43.416;23.232;2022-08-01T02:59:41;99638.69;;;19.63;64.23
33697;BME280;20031;43.416;23.232;2022-08-01T03:02:08;99644.09;;;19.56;64.65
33697;BME280;20031;43.416;23.232;2022-08-01T03:04:35;99645.47;;;19.59;64.41
33697;BME280;20031;43.416;23.232;2022-08-01T03:07:04;99643.41;;;19.61;64.61
33697;BME280;20031;43.416;23.232;2022-08-01T03:09:33;99640.75;;;19.61;64.46
33697;BME280;20031;43.416;23.232;2022-08-01T03:12:02;99648.47;;;19.62;64.35
33697;BME280;20031;43.416;23.232;2022-08-01T03:14:30;99651.34;;;19.61;64.09
33697;BME280;20031;43.416;23.232;2022-08-01T03:16:59;99652.81;;;19.57;64.06
33697;BME280;20031;43.416;23.232;2022-08-01T03:19:27;99645.72;;;19.57;64.00
33697;BME280;20031;43.416;23.232;2022-08-01T03:21:55;99648.34;;;19.57;63.81
33697;BME280;20031;43.416;23.232;2022-08-01T03:24:23;99645.78;;;19.51;63.28
33697;BME280;20031;43.416;23.232;2022-08-01T03:26:52;99637.16;;;19.44;62.91
33697;BME280;20031;43.416;23.232;2022-08-01T03:29:21;99649.19;;;19.40;62.28
33697;BME280;20031;43.416;23.232;2022-08-01T03:31:48;99640.69;;;19.38;62.80
33697;BME280;20031;43.416;23.232;2022-08-01T03:34:14;99640.25;;;19.41;62.69
33697;BME280;20031;43.416;23.232;2022-08-01T03:36:53;99639.06;;;19.37;62.82
33697;BME280;20031;43.416;23.232;2022-08-01T03:39:22;99640.91;;;19.37;62.46
33697;BME280;20031;43.416;23.232;2022-08-01T03:41:57;99644.09;;;19.27;62.60
33697;BME280;20031;43.416;23.232;2022-08-01T03:44:26;99642.88;;;19.41;62.38
33697;BME280;20031;43.416;23.232;2022-08-01T03:47:09;99640.84;;;19.54;62.54
33697;BME280;20031;43.416;23.232;2022-08-01T03:49:40;99650.88;;;19.64;61.88
33697;BME280;20031;43.416;23.232;2022-08-01T03:52:07;99646.31;;;19.71;61.76
33697;BME280;20031;43.416;23.232;2022-08-01T03:54:40;99639.53;;;19.75;61.82
33697;BME280;20031;43.416;23.232;2022-08-01T03:57:09;99637.38;;;19.83;61.24
33697;BME280;20031;43.416;23.232;2022-08-01T03:59:35;99648.47;;;19.92;61.54
33697;BME280;20031;43.416;23.232;2022-08-01T04:02:02;99645.47;;;19.99;61.83
33697;BME280;20031;43.416;23.232;2022-08-01T04:04:29;99645.13;;;20.07;61.01
33697;BME280;20031;43.416;23.232;2022-08-01T04:06:55;99636.97;;;19.98;61.48
33697;BME280;20031;43.416;23.232;2022-08-01T04:09:21;99639.25;;;20.05;61.73
33697;BME280;20031;43.416;23.232;2022-08-01T04:12:02;99638.00;;;20.19;61.57
33697;BME280;20031;43.416;23.232;2022-08-01T04:14:28;99641.81;;;20.23;61.57
33697;BME280;20031;43.416;23.232;2022-08-01T04:16:54;99647.22;;;20.40;61.36
33697;BME280;20031;43.416;23.232;2022-08-01T04:19:19;99643.41;;;20.58;61.07
33697;BME280;20031;43.416;23.232;2022-08-01T04:21:45;99644.41;;;20.80;60.93
33697;BME280;20031;43.416;23.232;2022-08-01T04:24:14;99651.75;;;21.01;61.12
33697;BME280;20031;43.416;23.232;2022-08-01T04:26:43;99643.97;;;21.22;60.18
33697;BME280;20031;43.416;23.232;2022-08-01T04:29:10;99639.50;;;21.39;60.03
33697;BME280;20031;43.416;23.232;2022-08-01T04:31:38;99634.75;;;21.52;59.09
33697;BME280;20031;43.416;23.232;2022-08-01T04:34:06;99637.81;;;21.61;58.69
33697;BME280;20031;43.416;23.232;2022-08-01T04:36:35;99635.91;;;21.73;58.49
33697;BME280;20031;43.416;23.232;2022-08-01T04:39:03;99630.28;;;21.86;57.90
33697;BME280;20031;43.416;23.232;2022-08-01T04:41:30;99618.22;;;21.95;57.42
33697;BME280;20031;43.416;23.232;2022-08-01T04:43:57;99627.13;;;22.05;57.11
33697;BME280;20031;43.416;23.232;2022-08-01T04:46:24;99626.25;;;22.16;56.62
33697;BME280;20031;43.416;23.232;2022-08-01T04:48:50;99619.34;;;22.15;55.94
33697;BME280;20031;43.416;23.232;2022-08-01T04:51:16;99630.38;;;22.23;55.37
33697;BME280;20031;43.416;23.232;2022-08-01T04:53:43;99624.81;;;22.41;55.55
33697;BME280;20031;43.416;23.232;2022-08-01T04:56:11;99620.44;;;22.52;55.34
33697;BME280;20031;43.416;23.232;2022-08-01T04:58:39;99622.31;;;22.72;55.76
33697;BME280;20031;43.416;23.232;2022-08-01T05:01:06;99616.88;;;22.84;55.88
33697;BME280;20031;43.416;23.232;2022-08-01T05:03:31;99618.16;;;22.98;55.08
33697;BME280;20031;43.416;23.232;2022-08-01T05:05:57;99621.22;;;23.11;54.53
33697;BME280;20031;43.416;23.232;2022-08-01T05:08:22;99622.69;;;23.23;54.32
33697;BME280;20031;43.416;23.232;2022-08-01T05:10:47;99624.56;;;23.23;54.89
33697;BME280;20031;43.416;23.232;2022-08-01T05:13:13;99628.03;;;23.28;55.44
33697;BME280;20031;43.416;23.232;2022-08-01T05:15:38;99622.28;;;23.36;55.89
33697;BME280;20031;43.416;23.232;2022-08-01T05:18:04;99616.47;;;23.39;55.66
33697;BME280;20031;43.416;23.232;2022-08-01T05:20:30;99613.38;;;23.47;55.19
33697;BME280;20031;43.416;23.232;2022-08-01T05:22:56;99620.25;;;23.43;54.26
33697;BME280;20031;43.416;23.232;2022-08-01T05:25:22;99621.97;;;23.59;54.57
33697;BME280;20031;43.416;23.232;2022-08-01T05:27:49;99614.41;;;23.72;53.72
33697;BME280;20031;43.416;23.232;2022-08-01T05:30:14;99628.66;;;23.88;52.64
33697;BME280;20031;43.416;23.232;2022-08-01T05:32:40;99610.25;;;24.17;42.95
33697;BME280;20031;43.416;23.232;2022-08-01T05:35:07;99611.91;;;24.65;40.66
33697;BME280;20031;43.416;23.232;2022-08-01T05:37:33;99604.59;;;25.01;40.27
33697;BME280;20031;43.416;23.232;2022-08-01T05:39:58;99606.28;;;25.32;39.53
33697;BME280;20031;43.416;23.232;2022-08-01T05:42:24;99610.03;;;25.51;37.95
33697;BME280;20031;43.416;23.232;2022-08-01T05:44:49;99621.31;;;25.68;37.09
33697;BME280;20031;43.416;23.232;2022-08-01T05:47:16;99606.38;;;25.76;36.31
33697;BME280;20031;43.416;23.232;2022-08-01T05:49:42;99607.16;;;25.92;36.56
33697;BME280;20031;43.416;23.232;2022-08-01T05:52:07;99607.16;;;25.97;36.49
33697;BME280;20031;43.416;23.232;2022-08-01T05:54:33;99620.78;;;25.80;36.06
33697;BME280;20031;43.416;23.232;2022-08-01T05:56:58;99624.25;;;25.96;36.66
33697;BME280;20031;43.416;23.232;2022-08-01T05:59:29;99623.16;;;26.21;36.02
33697;BME280;20031;43.416;23.232;2022-08-01T06:01:55;99616.22;;;26.35;35.96
33697;BME280;20031;43.416;23.232;2022-08-01T06:04:20;99602.84;;;26.25;35.47
33697;BME280;20031;43.416;23.232;2022-08-01T06:06:46;99622.41;;;25.96;36.18
33697;BME280;20031;43.416;23.232;2022-08-01T06:09:12;99629.59;;;25.76;36.78
33697;BME280;20031;43.416;23.232;2022-08-01T06:11:37;99630.63;;;25.75;36.34
33697;BME280;20031;43.416;23.232;2022-08-01T06:14:03;99630.41;;;25.96;36.53
33697;BME280;20031;43.416;23.232;2022-08-01T06:16:28;99631.97;;;26.17;36.02
33697;BME280;20031;43.416;23.232;2022-08-01T06:18:54;99634.66;;;26.12;35.80
33697;BME280;20031;43.416;23.232;2022-08-01T06:21:19;99636.00;;;25.90;36.20
33697;BME280;20031;43.416;23.232;2022-08-01T06:23:45;99637.59;;;25.76;36.96
33697;BME280;20031;43.416;23.232;2022-08-01T06:26:10;99637.06;;;26.04;36.49
33697;BME280;20031;43.416;23.232;2022-08-01T06:28:36;99636.78;;;26.30;36.45
33697;BME280;20031;43.416;23.232;2022-08-01T06:31:02;99649.31;;;26.54;36.01
33697;BME280;20031;43.416;23.232;2022-08-01T06:33:28;99613.78;;;26.54;35.24
33697;BME280;20031;43.416;23.232;2022-08-01T06:35:53;99634.88;;;26.55;36.11
33697;BME280;20031;43.416;23.232;2022-08-01T06:38:19;99637.56;;;26.60;36.06
33697;BME280;20031;43.416;23.232;2022-08-01T06:40:44;99642.56;;;26.76;35.75
33697;BME280;20031;43.416;23.232;2022-08-01T06:43:10;99651.38;;;26.77;35.88
33697;BME280;20031;43.416;23.232;2022-08-01T06:45:39;99638.25;;;26.85;35.94
33697;BME280;20031;43.416;23.232;2022-08-01T06:48:05;99637.41;;;27.05;35.27
33697;BME280;20031;43.416;23.232;2022-08-01T06:50:31;99656.75;;;26.72;35.64
33697;BME280;20031;43.416;23.232;2022-08-01T06:52:57;99643.66;;;26.71;35.48
33697;BME280;20031;43.416;23.232;2022-08-01T06:55:22;99639.59;;;26.88;35.74
33697;BME280;20031;43.416;23.232;2022-08-01T06:57:49;99631.59;;;26.93;35.42
33697;BME280;20031;43.416;23.232;2022-08-01T07:00:16;99637.97;;;26.87;35.44
33697;BME280;20031;43.416;23.232;2022-08-01T07:02:44;99645.75;;;26.98;35.57
33697;BME280;20031;43.416;23.232;2022-08-01T07:05:10;99642.47;;;27.06;35.47
33697;BME280;20031;43.416;23.232;2022-08-01T07:07:36;99639.97;;;27.25;35.33
33697;BME280;20031;43.416;23.232;2022-08-01T07:10:01;99628.16;;;27.30;35.00
33697;BME280;20031;43.416;23.232;2022-08-01T07:12:28;99630.28;;;27.33;35.46
33697;BME280;20031;43.416;23.232;2022-08-01T07:14:53;99627.31;;;27.40;34.34
33697;BME280;20031;43.416;23.232;2022-08-01T07:17:19;99629.69;;;27.46;34.32
33697;BME280;20031;43.416;23.232;2022-08-01T07:19:46;99620.63;;;27.42;34.41
33697;BME280;20031;43.416;23.232;2022-08-01T07:22:11;99609.06;;;27.52;34.27
33697;BME280;20031;43.416;23.232;2022-08-01T07:24:39;99624.59;;;27.45;34.13
33697;BME280;20031;43.416;23.232;2022-08-01T07:27:04;99614.63;;;27.60;33.94
33697;BME280;20031;43.416;23.232;2022-08-01T07:29:30;99611.41;;;27.63;34.10
33697;BME280;20031;43.416;23.232;2022-08-01T07:31:56;99601.91;;;27.80;33.60
33697;BME280;20031;43.416;23.232;2022-08-01T07:34:23;99618.44;;;27.87;33.59
33697;BME280;20031;43.416;23.232;2022-08-01T07:36:49;99621.06;;;27.92;32.86
33697;BME280;20031;43.416;23.232;2022-08-01T07:39:15;99638.69;;;27.98;33.30
33697;BME280;20031;43.416;23.232;2022-08-01T07:41:40;99618.63;;;27.96;33.29
33697;BME280;20031;43.416;23.232;2022-08-01T07:44:06;99622.88;;;28.02;33.34
33697;BME280;20031;43.416;23.232;2022-08-01T07:46:31;99624.03;;;28.24;32.56
33697;BME280;20031;43.416;23.232;2022-08-01T07:48:57;99621.72;;;28.41;32.86
33697;BME280;20031;43.416;23.232;2022-08-01T07:51:22;99628.91;;;28.45;32.55
33697;BME280;20031;43.416;23.232;2022-08-01T07:53:48;99626.47;;;28.49;32.53
33697;BME280;20031;43.416;23.232;2022-08-01T07:56:14;99627.25;;;28.49;32.87
33697;BME280;20031;43.416;23.232;2022-08-01T07:58:39;99624.63;;;28.44;32.31
33697;BME280;20031;43.416;23.232;2022-08-01T08:01:05;99646.59;;;28.46;32.23
33697;BME280;20031;43.416;23.232;2022-08-01T08:03:30;99632.03;;;28.29;32.72
33697;BME280;20031;43.416;23.232;2022-08-01T08:05:56;99638.31;;;28.43;32.02
33697;BME280;20031;43.416;23.232;2022-08-01T08:08:21;99635.97;;;28.36;32.89
33697;BME280;20031;43.416;23.232;2022-08-01T08:10:47;99638.81;;;28.73;32.02
33697;BME280;20031;43.416;23.232;2022-08-01T08:13:13;99651.03;;;28.84;32.23
33697;BME280;20031;43.416;23.232;2022-08-01T08:15:38;99644.31;;;29.05;31.44
33697;BME280;20031;43.416;23.232;2022-08-01T08:18:04;99646.13;;;28.39;31.60
33697;BME280;20031;43.416;23.232;2022-08-01T08:20:29;99645.22;;;27.87;33.09
33697;BME280;20031;43.416;23.232;2022-08-01T08:22:55;99649.69;;;27.97;33.09
33697;BME280;20031;43.416;23.232;2022-08-01T08:25:23;99653.97;;;28.31;32.96
33697;BME280;20031;43.416;23.232;2022-08-01T08:27:48;99632.91;;;28.48;33.01
33697;BME280;20031;43.416;23.232;2022-08-01T08:30:14;99668.59;;;28.15;32.76
33697;BME280;20031;43.416;23.232;2022-08-01T08:32:40;99648.38;;;28.28;32.69
33697;BME280;20031;43.416;23.232;2022-08-01T08:35:06;99648.91;;;28.30;32.60
33697;BME280;20031;43.416;23.232;2022-08-01T08:37:33;99649.94;;;28.33;32.84
33697;BME280;20031;43.416;23.232;2022-08-01T08:39:59;99649.84;;;28.67;32.59
33697;BME280;20031;43.416;23.232;2022-08-01T08:42:25;99652.44;;;28.48;32.97
33697;BME280;20031;43.416;23.232;2022-08-01T08:44:50;99657.97;;;28.33;33.26
33697;BME280;20031;43.416;23.232;2022-08-01T08:47:17;99654.41;;;28.66;32.89
33697;BME280;20031;43.416;23.232;2022-08-01T08:49:43;99660.53;;;28.95;32.02
33697;BME280;20031;43.416;23.232;2022-08-01T08:52:10;99664.69;;;29.29;31.55
33697;BME280;20031;43.416;23.232;2022-08-01T08:54:37;99649.41;;;29.30;32.21
33697;BME280;20031;43.416;23.232;2022-08-01T08:57:04;99646.16;;;29.51;31.94
33697;BME280;20031;43.416;23.232;2022-08-01T08:59:31;99635.47;;;29.46;31.26
33697;BME280;20031;43.416;23.232;2022-08-01T09:01:57;99660.72;;;29.27;32.13
33697;BME280;20031;43.416;23.232;2022-08-01T09:04:23;99661.03;;;28.79;32.46
33697;BME280;20031;43.416;23.232;2022-08-01T09:06:49;99650.69;;;28.90;32.31
33697;BME280;20031;43.416;23.232;2022-08-01T09:09:14;99659.31;;;29.29;32.00
33697;BME280;20031;43.416;23.232;2022-08-01T09:11:40;99641.88;;;29.50;31.81
33697;BME280;20031;43.416;23.232;2022-08-01T09:14:14;99652.09;;;29.30;31.78
33697;BME280;20031;43.416;23.232;2022-08-01T09:16:47;99648.03;;;29.09;32.39
33697;BME280;20031;43.416;23.232;2022-08-01T09:19:23;99641.06;;;29.31;31.62
33697;BME280;20031;43.416;23.232;2022-08-01T09:21:59;99642.00;;;29.58;31.55
33697;BME280;20031;43.416;23.232;2022-08-01T09:24:26;99657.63;;;29.56;31.56
33697;BME280;20031;43.416;23.232;2022-08-01T09:26:53;99648.31;;;29.67;31.08
33697;BME280;20031;43.416;23.232;2022-08-01T09:29:25;99652.91;;;29.85;31.52
33697;BME280;20031;43.416;23.232;2022-08-01T09:31:51;99636.22;;;30.01;30.86
33697;BME280;20031;43.416;23.232;2022-08-01T09:34:27;99625.66;;;30.23;30.77
33697;BME280;20031;43.416;23.232;2022-08-01T09:36:58;99631.59;;;30.39;30.84
33697;BME280;20031;43.416;23.232;2022-08-01T09:39:32;99641.31;;;30.35;30.60
33697;BME280;20031;43.416;23.232;2022-08-01T09:42:01;99641.94;;;30.45;31.04
33697;BME280;20031;43.416;23.232;2022-08-01T09:44:38;99642.16;;;30.48;30.74
33697;BME280;20031;43.416;23.232;2022-08-01T09:47:04;99643.97;;;30.66;30.78
33697;BME280;20031;43.416;23.232;2022-08-01T09:49:34;99648.94;;;30.59;30.48
33697;BME280;20031;43.416;23.232;2022-08-01T09:52:18;99633.97;;;30.40;30.20
33697;BME280;20031;43.416;23.232;2022-08-01T09:55:02;99635.47;;;30.59;30.68
33697;BME280;20031;43.416;23.232;2022-08-01T09:57:29;99631.03;;;30.68;30.80
33697;BME280;20031;43.416;23.232;2022-08-01T09:59:58;99629.91;;;30.42;30.52
33697;BME280;20031;43.416;23.232;2022-08-01T10:02:35;99637.28;;;30.50;30.99
33697;BME280;20031;43.416;23.232;2022-08-01T10:05:03;99636.88;;;30.70;30.72
33697;BME280;20031;43.416;23.232;2022-08-01T10:07:29;99631.50;;;30.57;30.86
33697;BME280;20031;43.416;23.232;2022-08-01T10:09:54;99622.94;;;30.42;30.92
33697;BME280;20031;43.416;23.232;2022-08-01T10:12:22;99625.41;;;30.65;30.64
33697;BME280;20031;43.416;23.232;2022-08-01T10:14:50;99619.69;;;30.98;30.77
33697;BME280;20031;43.416;23.232;2022-08-01T10:17:18;99621.69;;;30.93;30.26
33697;BME280;20031;43.416;23.232;2022-08-01T10:19:46;99615.28;;;30.75;30.35
33697;BME280;20031;43.416;23.232;2022-08-01T10:22:16;99622.25;;;30.63;30.60
33697;BME280;20031;43.416;23.232;2022-08-01T10:24:46;99603.31;;;30.81;30.92
33697;BME280;20031;43.416;23.232;2022-08-01T10:27:14;99595.75;;;30.96;30.69
33697;BME280;20031;43.416;23.232;2022-08-01T10:29:46;99596.66;;;31.27;29.87
33697;BME280;20031;43.416;23.232;2022-08-01T10:32:12;99589.81;;;31.21;30.63
33697;BME280;20031;43.416;23.232;2022-08-01T10:34:38;99602.44;;;31.48;30.27
33697;BME280;20031;43.416;23.232;2022-08-01T10:37:04;99601.13;;;31.32;30.51
33697;BME280;20031;43.416;23.232;2022-08-01T10:39:31;99600.00;;;31.59;29.76
33697;BME280;20031;43.416;23.232;2022-08-01T10:41:57;99582.81;;;31.69;29.88
33697;BME280;20031;43.416;23.232;2022-08-01T10:44:24;99583.34;;;31.57;29.86
33697;BME280;20031;43.416;23.232;2022-08-01T10:46:52;99584.88;;;31.72;30.24
33697;BME280;20031;43.416;23.232;2022-08-01T10:49:21;99593.34;;;31.79;29.66
33697;BME280;20031;43.416;23.232;2022-08-01T10:51:47;99594.16;;;31.44;30.24
33697;BME280;20031;43.416;23.232;2022-08-01T10:54:13;99591.22;;;31.54;30.16
33697;BME280;20031;43.416;23.232;2022-08-01T10:59:05;99578.34;;;31.64;29.83
33697;BME280;20031;43.416;23.232;2022-08-01T11:01:32;99608.44;;;31.88;30.02
33697;BME280;20031;43.416;23.232;2022-08-01T11:09:00;99588.16;;;31.91;29.84
33697;BME280;20031;43.416;23.232;2022-08-01T11:11:26;99588.19;;;31.69;30.14
33697;BME280;20031;43.416;23.232;2022-08-01T11:16:41;99576.16;;;32.18;29.69
33697;BME280;20031;43.416;23.232;2022-08-01T11:19:07;99569.06;;;32.31;29.74
33697;BME280;20031;43.416;23.232;2022-08-01T11:27:15;99564.00;;;32.68;28.14
33697;BME280;20031;43.416;23.232;2022-08-01T11:29:41;99567.47;;;32.30;28.59
33697;BME280;20031;43.416;23.232;2022-08-01T11:32:25;99564.88;;;32.47;28.35
33697;BME280;20031;43.416;23.232;2022-08-01T11:34:52;99566.25;;;32.05;28.22
33697;BME280;20031;43.416;23.232;2022-08-01T11:37:24;99561.28;;;31.55;29.86
33697;BME280;20031;43.416;23.232;2022-08-01T11:40:30;99567.19;;;31.09;30.03
33697;BME280;20031;43.416;23.232;2022-08-01T11:45:55;99563.44;;;30.83;30.32
33697;BME280;20031;43.416;23.232;2022-08-01T11:48:21;99558.06;;;31.32;30.00
33697;BME280;20031;43.416;23.232;2022-08-01T11:50:50;99557.53;;;31.87;29.11
33697;BME280;20031;43.416;23.232;2022-08-01T11:53:16;99552.97;;;32.17;28.43
33697;BME280;20031;43.416;23.232;2022-08-01T11:55:50;99557.56;;;32.47;28.25
33697;BME280;20031;43.416;23.232;2022-08-01T11:58:22;99544.34;;;32.37;28.81
33697;BME280;20031;43.416;23.232;2022-08-01T12:00:56;99542.94;;;32.95;27.74
33697;BME280;20031;43.416;23.232;2022-08-01T12:03:30;99545.50;;;33.25;27.67
33697;BME280;20031;43.416;23.232;2022-08-01T12:05:57;99550.44;;;33.32;27.32
33697;BME280;20031;43.416;23.232;2022-08-01T12:08:27;99536.78;;;33.20;27.36
33697;BME280;20031;43.416;23.232;2022-08-01T12:10:54;99547.44;;;33.42;27.92
33697;BME280;20031;43.416;23.232;2022-08-01T12:13:20;99554.56;;;33.21;27.60
33697;BME280;20031;43.416;23.232;2022-08-01T12:15:46;99533.38;;;32.81;28.08
33697;BME280;20031;43.416;23.232;2022-08-01T12:18:12;99548.78;;;32.42;29.17
33697;BME280;20031;43.416;23.232;2022-08-01T12:20:40;99532.31;;;32.04;29.01
33697;BME280;20031;43.416;23.232;2022-08-01T12:23:11;99532.50;;;32.55;28.38
33697;BME280;20031;43.416;23.232;2022-08-01T12:25:37;99533.09;;;33.16;27.64
33697;BME280;20031;43.416;23.232;2022-08-01T12:28:10;99530.91;;;33.18;27.34
33697;BME280;20031;43.416;23.232;2022-08-01T12:30:38;99539.00;;;32.46;28.42
33697;BME280;20031;43.416;23.232;2022-08-01T12:33:08;99531.69;;;32.46;28.48
33697;BME280;20031;43.416;23.232;2022-08-01T12:35:35;99540.78;;;32.20;28.52
33697;BME280;20031;43.416;23.232;2022-08-01T12:38:06;99521.59;;;32.68;28.23
33697;BME280;20031;43.416;23.232;2022-08-01T12:40:34;99531.28;;;32.31;28.68
33697;BME280;20031;43.416;23.232;2022-08-01T12:43:04;99536.69;;;32.61;28.38
33697;BME280;20031;43.416;23.232;2022-08-01T12:45:33;99525.94;;;32.86;28.80
33697;BME280;20031;43.416;23.232;2022-08-01T12:48:00;99528.03;;;33.31;27.68
33697;BME280;20031;43.416;23.232;2022-08-01T12:50:28;99526.28;;;33.44;27.83
33697;BME280;20031;43.416;23.232;2022-08-01T12:52:56;99517.78;;;33.87;27.42
33697;BME280;20031;43.416;23.232;2022-08-01T12:55:23;99515.25;;;33.82;26.86
33697;BME280;20031;43.416;23.232;2022-08-01T13:00:29;99519.34;;;32.53;28.95
33697;BME280;20031;43.416;23.232;2022-08-01T13:03:06;99517.25;;;32.98;28.03
33697;BME280;20031;43.416;23.232;2022-08-01T13:08:20;99512.44;;;33.45;27.62
33697;BME280;20031;43.416;23.232;2022-08-01T13:10:46;99520.34;;;32.83;27.99
33697;BME280;20031;43.416;23.232;2022-08-01T13:13:13;99507.53;;;32.33;28.00
33697;BME280;20031;43.416;23.232;2022-08-01T13:15:41;99517.50;;;32.71;28.01
33697;BME280;20031;43.416;23.232;2022-08-01T13:18:30;99516.28;;;33.10;27.63
33697;BME280;20031;43.416;23.232;2022-08-01T13:21:08;99506.25;;;33.61;27.18
33697;BME280;20031;43.416;23.232;2022-08-01T13:23:34;99507.94;;;33.91;26.81
33697;BME280;20031;43.416;23.232;2022-08-01T13:26:00;99518.66;;;34.16;26.33
33697;BME280;20031;43.416;23.232;2022-08-01T13:28:26;99496.53;;;34.23;25.88